EDDS

Stuttgart Airport

Stuttgart, Germany
METAR EDDS 170550Z 27007KT 9999 FEW018 BKN048 01/M00 Q1020 NOSIG
Observed Flight Rules
Dec-17 @ 05:50 UTC (21 minutes ago) Visual Flight Rules
Wind Visibility Clouds
270° at 7 knots 10,000+ meters
  • Few at 1,800' AGL
  • Broken at 4,800' AGL
Temperatures Readings
Current 1°C / 34°F
Dewpoint 0°C / 32°F
Humidity 93%
Altimeter 30.12" Hg
Pressure 1020 hPa
Elevation 419
METAR EDDS 170550Z 27007KT 9999 FEW018 BKN048 01/M00 Q1020 NOSIG
Observed Flight Rules
Dec-17 @ 05:50 UTC
(21 minutes ago)
VFR
Wind Visibility
270° at 7 knots 10,000+ meters
Clouds
  • Few at 1,800' AGL
  • Broken at 4,800' AGL
Temperature Dewpoint
1°C / 34°F 0°C / 32°F
Humidity Altimeter Pressure
93% 30.12" Hg 1020 hPa